createdAt,value
2023-01-15T00:00:43.743Z,100.00
2023-01-15T00:01:45.333Z,100.00
2023-01-15T00:02:46.969Z,100.00
2023-01-15T00:03:49.230Z,100.00
2023-01-15T00:04:51.765Z,100.00
2023-01-15T00:05:53.384Z,100.00
2023-01-15T00:06:54.990Z,100.00
2023-01-15T00:07:56.531Z,99.63
2023-01-15T00:08:58.915Z,99.15
2023-01-15T00:10:00.473Z,99.55
2023-01-15T00:11:05.866Z,98.97
2023-01-15T00:12:07.495Z,97.87
2023-01-15T00:13:09.209Z,98.54
2023-01-15T00:14:10.888Z,97.33
2023-01-15T00:15:14.511Z,96.85
2023-01-15T00:16:21.835Z,97.02
2023-01-15T00:17:23.461Z,96.02
2023-01-15T00:18:24.986Z,95.83
2023-01-15T00:19:26.524Z,95.47
2023-01-15T00:20:28.199Z,95.57
2023-01-15T00:21:31.989Z,95.32
2023-01-15T00:22:33.581Z,95.60
2023-01-15T00:23:54.041Z,96.71
2023-01-15T00:25:13.823Z,98.90
2023-01-15T00:26:36.793Z,100.00
2023-01-15T00:27:41.080Z,100.00
2023-01-15T00:28:42.831Z,100.00
2023-01-15T00:29:44.365Z,100.00
2023-01-15T00:30:46.006Z,100.00
2023-01-15T00:31:55.960Z,100.00
2023-01-15T00:32:59.134Z,100.00
2023-01-15T00:34:01.146Z,100.00
2023-01-15T00:35:02.734Z,100.00
2023-01-15T00:36:04.591Z,100.00
2023-01-15T00:37:06.210Z,100.00
2023-01-15T00:38:07.735Z,100.00
2023-01-15T00:39:09.283Z,100.00
2023-01-15T00:40:11.983Z,100.00
2023-01-15T00:41:13.579Z,100.00
2023-01-15T00:42:16.203Z,100.00
2023-01-15T00:43:17.719Z,100.00
2023-01-15T00:44:20.086Z,100.00
2023-01-15T00:45:21.992Z,100.00
2023-01-15T00:46:23.695Z,100.00
2023-01-15T00:47:25.542Z,100.00
2023-01-15T00:48:27.205Z,100.00
2023-01-15T00:49:28.997Z,100.00
2023-01-15T00:50:30.551Z,100.00
2023-01-15T00:51:32.885Z,100.00
2023-01-15T00:52:34.537Z,100.00
2023-01-15T00:53:36.097Z,100.00
2023-01-15T00:54:37.653Z,100.00
2023-01-15T00:55:39.196Z,100.00
2023-01-15T00:56:40.748Z,100.00
2023-01-15T00:57:42.336Z,100.00
2023-01-15T00:58:44.028Z,99.72
2023-01-15T00:59:45.621Z,99.22
2023-01-15T01:00:47.231Z,98.66
2023-01-15T01:01:51.194Z,98.52
2023-01-15T01:02:52.742Z,98.57
2023-01-15T01:03:54.307Z,97.91
2023-01-15T01:04:55.843Z,99.25
2023-01-15T01:06:02.219Z,99.83
2023-01-15T01:07:04.031Z,99.29
2023-01-15T01:08:05.636Z,99.73
2023-01-15T01:09:07.207Z,99.69
2023-01-15T01:10:09.517Z,99.08
2023-01-15T01:11:13.559Z,98.74
2023-01-15T01:12:15.223Z,98.63
2023-01-15T01:13:16.797Z,98.40
2023-01-15T01:14:18.418Z,98.21
2023-01-15T01:15:23.655Z,97.53
2023-01-15T01:16:37.793Z,97.15
2023-01-15T01:17:39.622Z,96.47
2023-01-15T01:18:41.160Z,96.20
2023-01-15T01:19:42.768Z,95.49
2023-01-15T01:20:44.263Z,95.32
2023-01-15T01:21:47.058Z,95.11
2023-01-15T01:22:49.656Z,95.08
2023-01-15T01:23:51.289Z,94.12
2023-01-15T01:24:52.804Z,94.15
2023-01-15T01:25:54.380Z,92.92
2023-01-15T01:26:56.042Z,92.88
2023-01-15T01:27:57.531Z,92.82
2023-01-15T01:28:59.081Z,92.81
2023-01-15T01:30:00.599Z,91.74
2023-01-15T01:31:06.446Z,91.47
2023-01-15T01:32:08.011Z,91.90
2023-01-15T01:33:09.668Z,92.32
2023-01-15T01:34:12.719Z,91.99
2023-01-15T01:35:14.293Z,92.81
2023-01-15T01:36:16.135Z,92.13
2023-01-15T01:37:17.655Z,92.62
2023-01-15T01:38:19.185Z,92.60
2023-01-15T01:39:20.755Z,91.78
2023-01-15T01:40:22.344Z,92.33
2023-01-15T01:41:24.477Z,92.04
2023-01-15T01:42:26.080Z,93.28
2023-01-15T01:43:30.088Z,92.71
2023-01-15T01:44:37.359Z,92.82
2023-01-15T01:45:38.967Z,93.77
2023-01-15T01:46:40.508Z,93.88
2023-01-15T01:47:42.056Z,94.34
2023-01-15T01:48:43.630Z,94.56
2023-01-15T01:49:46.773Z,94.47
2023-01-15T01:50:50.163Z,94.18
2023-01-15T01:51:59.234Z,94.97
2023-01-15T01:53:07.037Z,94.72
2023-01-15T01:54:11.036Z,93.88
2023-01-15T01:55:15.496Z,94.51
2023-01-15T01:56:20.504Z,94.05
2023-01-15T01:57:23.127Z,94.08
2023-01-15T01:58:30.997Z,94.64
2023-01-15T01:59:33.242Z,94.53
2023-01-15T02:00:36.779Z,96.56
2023-01-15T02:01:38.569Z,96.49
2023-01-15T02:02:43.918Z,97.03
2023-01-15T02:03:46.372Z,96.32
2023-01-15T02:04:48.702Z,95.71
2023-01-15T02:05:54.033Z,95.70
2023-01-15T02:06:56.649Z,95.06
2023-01-15T02:07:58.299Z,95.26
2023-01-15T02:08:59.921Z,94.42
2023-01-15T02:10:01.612Z,95.11
2023-01-15T02:11:03.766Z,94.54
2023-01-15T02:12:34.194Z,96.40
2023-01-15T02:13:43.146Z,97.52
2023-01-15T02:15:01.228Z,98.66
2023-01-15T02:16:34.488Z,99.82
2023-01-15T02:17:38.559Z,99.48
2023-01-15T02:18:51.478Z,98.76
2023-01-15T02:20:11.692Z,99.05
2023-01-15T02:21:47.171Z,98.95
2023-01-15T02:23:06.638Z,98.68
2023-01-15T02:24:12.507Z,99.13
2023-01-15T02:25:48.094Z,98.32
2023-01-15T02:27:04.911Z,98.19
2023-01-15T02:28:31.032Z,96.99
2023-01-15T02:29:59.249Z,97.03
2023-01-15T02:31:12.606Z,96.34
2023-01-15T02:32:20.314Z,95.95
2023-01-15T02:33:28.844Z,96.24
2023-01-15T02:34:35.316Z,95.37
2023-01-15T02:35:44.389Z,95.00
2023-01-15T02:36:53.000Z,94.40
2023-01-15T02:37:59.651Z,94.40
2023-01-15T02:39:06.383Z,95.08
2023-01-15T02:40:09.996Z,94.38
2023-01-15T02:41:16.572Z,94.15
2023-01-15T02:42:20.843Z,96.22
2023-01-15T02:43:24.044Z,97.15
2023-01-15T02:44:29.577Z,98.02
2023-01-15T02:45:35.058Z,97.21
2023-01-15T02:46:39.205Z,96.22
2023-01-15T02:47:44.513Z,96.87
2023-01-15T02:48:50.359Z,96.25
2023-01-15T02:49:55.545Z,96.10
2023-01-15T02:51:06.275Z,96.47
2023-01-15T02:52:17.033Z,95.80
2023-01-15T02:53:25.933Z,95.05
2023-01-15T02:54:34.127Z,95.78
2023-01-15T02:55:39.346Z,96.34
2023-01-15T02:56:45.534Z,95.92
2023-01-15T02:57:50.517Z,95.71
2023-01-15T02:58:57.762Z,95.41
2023-01-15T03:00:03.589Z,95.98
2023-01-15T03:01:15.222Z,97.59
2023-01-15T03:02:23.396Z,98.42
2023-01-15T03:03:39.470Z,98.58
2023-01-15T03:04:50.684Z,98.73
2023-01-15T03:05:57.075Z,99.60
2023-01-15T03:07:05.097Z,100.00
2023-01-15T03:08:08.630Z,100.00
2023-01-15T03:09:10.893Z,100.00
2023-01-15T03:10:13.139Z,100.00
2023-01-15T03:11:19.910Z,100.00
2023-01-15T03:12:57.540Z,100.00
2023-01-15T03:14:02.037Z,100.00
2023-01-15T03:15:42.576Z,100.00
2023-01-15T03:16:56.975Z,100.00
2023-01-15T03:17:59.133Z,100.00
2023-01-15T03:19:31.388Z,100.00
2023-01-15T03:20:33.314Z,100.00
2023-01-15T03:21:59.645Z,100.00
2023-01-15T03:23:09.386Z,100.00
2023-01-15T03:24:13.156Z,100.00
2023-01-15T03:25:27.049Z,100.00
2023-01-15T03:26:29.076Z,100.00
2023-01-15T03:27:30.738Z,99.32
2023-01-15T03:28:35.284Z,99.27
2023-01-15T03:29:43.559Z,98.42
2023-01-15T03:30:45.089Z,98.11
2023-01-15T03:31:46.739Z,97.52
2023-01-15T03:32:48.557Z,97.79
2023-01-15T03:33:50.478Z,97.63
2023-01-15T03:34:56.096Z,96.73
2023-01-15T03:36:00.501Z,96.04
2023-01-15T03:37:02.778Z,95.28
2023-01-15T03:38:04.428Z,94.61
2023-01-15T03:39:06.197Z,94.64
2023-01-15T03:40:08.428Z,94.56
2023-01-15T03:41:44.685Z,94.64
2023-01-15T03:43:16.845Z,94.68
2023-01-15T03:44:18.335Z,94.53
2023-01-15T03:45:37.710Z,93.99
2023-01-15T03:47:11.991Z,93.79
2023-01-15T03:48:30.182Z,93.14
2023-01-15T03:49:31.705Z,92.80
2023-01-15T03:50:50.001Z,93.22
2023-01-15T03:52:03.853Z,92.99
2023-01-15T03:53:18.118Z,92.71
2023-01-15T03:54:31.902Z,93.32
2023-01-15T03:55:43.141Z,93.20
2023-01-15T03:56:55.789Z,92.84
2023-01-15T03:58:05.626Z,92.63
2023-01-15T03:59:23.737Z,92.33
2023-01-15T04:00:36.507Z,92.64
2023-01-15T04:01:42.672Z,93.47
2023-01-15T04:02:47.175Z,93.39
2023-01-15T04:03:50.618Z,94.21
2023-01-15T04:04:54.868Z,94.52
2023-01-15T04:06:00.806Z,94.78
2023-01-15T04:07:03.985Z,94.91
2023-01-15T04:08:07.320Z,94.79
2023-01-15T04:09:11.162Z,95.15
2023-01-15T04:10:12.927Z,95.07
2023-01-15T04:11:23.394Z,95.19
2023-01-15T04:12:24.926Z,96.04
2023-01-15T04:13:29.343Z,96.87
2023-01-15T04:14:33.587Z,97.74
2023-01-15T04:15:35.165Z,97.55
2023-01-15T04:16:36.756Z,98.64
2023-01-15T04:17:38.605Z,99.28
2023-01-15T04:18:40.154Z,99.10
2023-01-15T04:19:43.657Z,99.30
2023-01-15T04:20:45.757Z,98.97
2023-01-15T04:21:47.392Z,98.34
2023-01-15T04:22:48.922Z,97.89
2023-01-15T04:23:50.904Z,98.07
2023-01-15T04:24:54.992Z,97.06
2023-01-15T04:25:56.961Z,96.90
2023-01-15T04:26:58.563Z,97.56
2023-01-15T04:28:00.170Z,96.96
2023-01-15T04:29:01.693Z,97.78
2023-01-15T04:30:03.562Z,96.79
2023-01-15T04:31:05.337Z,97.22
2023-01-15T04:32:07.052Z,95.63
2023-01-15T04:33:08.733Z,95.59
2023-01-15T04:34:10.340Z,95.25
2023-01-15T04:35:11.846Z,95.04
2023-01-15T04:36:14.603Z,94.43
2023-01-15T04:37:17.213Z,94.33
2023-01-15T04:38:18.737Z,94.19
2023-01-15T04:39:20.615Z,93.70
2023-01-15T04:40:40.823Z,93.55
2023-01-15T04:42:00.831Z,92.14
2023-01-15T04:43:20.602Z,91.72
2023-01-15T04:44:22.218Z,91.74
2023-01-15T04:45:23.785Z,90.63
2023-01-15T04:46:25.586Z,90.28
2023-01-15T04:47:30.174Z,90.15
2023-01-15T04:48:31.726Z,90.69
2023-01-15T04:49:34.902Z,90.25
2023-01-15T04:50:37.245Z,90.74
2023-01-15T04:51:40.322Z,90.41
2023-01-15T04:52:41.874Z,89.93
2023-01-15T04:53:43.473Z,89.99
2023-01-15T04:54:45.130Z,90.02
2023-01-15T04:55:46.730Z,90.34
2023-01-15T04:56:51.059Z,90.30
2023-01-15T04:57:52.637Z,89.61
2023-01-15T04:58:54.199Z,91.63
2023-01-15T04:59:55.713Z,93.28
2023-01-15T05:00:57.740Z,95.13
2023-01-15T05:02:04.676Z,95.42
2023-01-15T05:03:06.778Z,96.16
2023-01-15T05:04:08.822Z,98.27
2023-01-15T05:05:10.438Z,98.29
2023-01-15T05:06:14.377Z,99.15
2023-01-15T05:07:15.992Z,99.42
2023-01-15T05:08:17.643Z,99.13
2023-01-15T05:09:19.264Z,100.00
2023-01-15T05:10:20.790Z,99.37
2023-01-15T05:11:22.363Z,98.40
2023-01-15T05:12:23.915Z,99.13
2023-01-15T05:13:25.411Z,97.90
2023-01-15T05:14:27.114Z,97.32
2023-01-15T05:15:28.719Z,97.92
2023-01-15T05:16:31.280Z,97.41
2023-01-15T05:17:33.781Z,97.39
2023-01-15T05:18:35.595Z,97.45
2023-01-15T05:19:37.157Z,96.48
2023-01-15T05:20:38.719Z,96.40
2023-01-15T05:21:43.067Z,97.17
2023-01-15T05:22:47.152Z,96.58
2023-01-15T05:23:53.485Z,97.22
2023-01-15T05:24:55.056Z,96.93
2023-01-15T05:25:56.849Z,96.15
2023-01-15T05:27:00.262Z,97.12
2023-01-15T05:28:01.921Z,95.58
2023-01-15T05:29:04.642Z,96.32
2023-01-15T05:30:06.872Z,94.78
2023-01-15T05:31:10.940Z,95.00
2023-01-15T05:32:12.558Z,94.65
2023-01-15T05:33:14.206Z,94.96
2023-01-15T05:34:15.725Z,94.44
2023-01-15T05:35:17.379Z,93.98
2023-01-15T05:36:22.463Z,94.05
2023-01-15T05:37:23.945Z,93.63
2023-01-15T05:38:25.446Z,92.91
2023-01-15T05:39:26.992Z,93.30
2023-01-15T05:40:28.505Z,93.16
2023-01-15T05:41:49.045Z,92.29
2023-01-15T05:42:50.663Z,92.75
2023-01-15T05:43:52.350Z,92.62
2023-01-15T05:44:53.908Z,92.27
2023-01-15T05:45:55.491Z,91.64
2023-01-15T05:47:03.222Z,91.02
2023-01-15T05:48:05.078Z,91.54
2023-01-15T05:49:09.849Z,90.91
2023-01-15T05:50:11.518Z,91.02
2023-01-15T05:51:13.275Z,90.83
2023-01-15T05:52:14.774Z,89.80
2023-01-15T05:53:16.290Z,90.01
2023-01-15T05:54:23.506Z,89.24
2023-01-15T05:55:25.071Z,89.53
2023-01-15T05:56:26.786Z,88.75
2023-01-15T05:57:28.297Z,89.70
2023-01-15T05:58:29.860Z,100.00
2023-01-15T05:59:33.013Z,100.00
2023-01-15T06:00:34.636Z,100.00
2023-01-15T06:01:37.067Z,100.00
2023-01-15T06:02:38.690Z,99.48
2023-01-15T06:03:41.806Z,98.04
2023-01-15T06:04:43.396Z,97.29
2023-01-15T06:05:50.752Z,94.94
2023-01-15T06:06:54.294Z,93.59
2023-01-15T06:07:55.843Z,91.75
2023-01-15T06:08:57.470Z,90.22
2023-01-15T06:09:59.002Z,89.29
2023-01-15T06:11:00.600Z,88.80
2023-01-15T06:12:02.207Z,88.24
2023-01-15T06:13:03.723Z,88.05
2023-01-15T06:14:05.706Z,87.99
2023-01-15T06:15:07.701Z,87.12
2023-01-15T06:16:13.301Z,87.26
2023-01-15T06:17:15.232Z,87.08
2023-01-15T06:18:16.836Z,86.30
2023-01-15T06:19:18.444Z,86.66
2023-01-15T06:20:19.979Z,86.80
2023-01-15T06:21:21.713Z,86.68
2023-01-15T06:22:23.226Z,86.60
2023-01-15T06:23:24.894Z,86.69
2023-01-15T06:24:26.456Z,88.21
2023-01-15T06:25:28.022Z,88.98
2023-01-15T06:26:29.671Z,89.04
2023-01-15T06:27:31.232Z,88.83
2023-01-15T06:28:33.710Z,87.99
2023-01-15T06:29:35.263Z,86.67
2023-01-15T06:30:39.530Z,86.71
2023-01-15T06:31:41.116Z,85.94
2023-01-15T06:32:42.750Z,86.25
2023-01-15T06:33:44.707Z,85.69
2023-01-15T06:34:46.241Z,85.85
2023-01-15T06:35:47.809Z,86.25
2023-01-15T06:36:49.343Z,86.66
2023-01-15T06:37:51.521Z,86.60
2023-01-15T06:38:53.382Z,86.13
2023-01-15T06:39:54.937Z,86.96
2023-01-15T06:40:58.798Z,86.84
2023-01-15T06:42:18.923Z,87.48
2023-01-15T06:43:38.932Z,87.58
2023-01-15T06:44:58.685Z,86.76
2023-01-15T06:46:18.537Z,86.92
2023-01-15T06:47:21.824Z,87.31
2023-01-15T06:48:25.267Z,87.72
2023-01-15T06:49:26.772Z,86.97
2023-01-15T06:50:28.373Z,87.23
2023-01-15T06:51:31.282Z,86.83
2023-01-15T06:52:32.906Z,87.09
2023-01-15T06:53:36.413Z,87.87
2023-01-15T06:54:38.408Z,87.58
2023-01-15T06:55:40.030Z,88.62
2023-01-15T06:56:41.555Z,88.96
2023-01-15T06:57:43.351Z,88.45
2023-01-15T06:58:45.018Z,89.04
2023-01-15T06:59:47.466Z,88.91
2023-01-15T07:00:55.413Z,88.94
2023-01-15T07:01:56.990Z,88.47
2023-01-15T07:03:02.220Z,87.86
2023-01-15T07:04:04.053Z,87.64
2023-01-15T07:05:05.939Z,87.55
2023-01-15T07:06:13.540Z,87.50
2023-01-15T07:07:17.006Z,87.03
2023-01-15T07:08:18.554Z,86.63
2023-01-15T07:09:20.150Z,85.70
2023-01-15T07:10:21.658Z,85.91
2023-01-15T07:11:23.730Z,85.89
2023-01-15T07:12:25.521Z,85.27
2023-01-15T07:13:27.134Z,86.00
2023-01-15T07:14:28.696Z,85.92
2023-01-15T07:15:31.224Z,85.52
2023-01-15T07:16:34.030Z,85.26
2023-01-15T07:17:35.651Z,84.50
2023-01-15T07:18:37.179Z,84.21
2023-01-15T07:19:39.201Z,84.44
2023-01-15T07:20:40.743Z,83.88
2023-01-15T07:21:42.376Z,84.31
2023-01-15T07:22:43.891Z,83.94
2023-01-15T07:23:45.484Z,83.50
2023-01-15T07:24:47.003Z,83.19
2023-01-15T07:25:48.563Z,82.99
2023-01-15T07:26:50.139Z,81.43
2023-01-15T07:27:51.697Z,82.15
2023-01-15T07:28:53.520Z,83.20
2023-01-15T07:29:55.088Z,84.30
2023-01-15T07:30:58.818Z,84.75
2023-01-15T07:32:00.480Z,83.88
2023-01-15T07:33:02.108Z,83.76
2023-01-15T07:34:04.744Z,82.67
2023-01-15T07:35:06.402Z,83.14
2023-01-15T07:36:08.260Z,82.57
2023-01-15T07:37:11.430Z,82.54
2023-01-15T07:38:13.000Z,82.62
2023-01-15T07:39:15.001Z,83.07
2023-01-15T07:40:16.653Z,82.84
2023-01-15T07:41:37.149Z,82.25
2023-01-15T07:42:57.397Z,82.27
2023-01-15T07:44:17.730Z,80.91
2023-01-15T07:45:37.761Z,80.75
2023-01-15T07:46:58.148Z,79.35
2023-01-15T07:48:18.061Z,78.81
2023-01-15T07:49:38.007Z,79.35
2023-01-15T07:50:39.566Z,80.04
2023-01-15T07:51:41.083Z,81.06
2023-01-15T07:52:42.796Z,79.90
2023-01-15T07:53:44.372Z,79.69
2023-01-15T07:54:47.408Z,80.67
2023-01-15T07:55:48.932Z,81.47
2023-01-15T07:56:52.876Z,80.66
2023-01-15T07:57:55.335Z,80.83
2023-01-15T07:58:56.985Z,80.73
2023-01-15T07:59:58.538Z,80.91
2023-01-15T08:01:00.177Z,81.03
2023-01-15T08:02:01.939Z,81.40
2023-01-15T08:03:03.731Z,81.42
2023-01-15T08:04:05.401Z,81.12
2023-01-15T08:05:07.981Z,81.53
2023-01-15T08:06:09.535Z,81.15
2023-01-15T08:07:12.911Z,82.04
2023-01-15T08:08:18.234Z,82.50
2023-01-15T08:09:19.827Z,82.19
2023-01-15T08:10:21.489Z,81.73
2023-01-15T08:11:41.233Z,82.12
2023-01-15T08:13:01.179Z,83.38
2023-01-15T08:14:28.719Z,83.39
2023-01-15T08:15:38.591Z,83.93
2023-01-15T08:16:40.153Z,84.54
2023-01-15T08:17:44.374Z,84.25
2023-01-15T08:18:46.753Z,84.22
2023-01-15T08:19:48.358Z,83.64
2023-01-15T08:20:49.856Z,83.46
2023-01-15T08:21:51.756Z,83.08
2023-01-15T08:22:53.720Z,83.03
2023-01-15T08:23:55.327Z,82.39
2023-01-15T08:24:56.852Z,81.68
2023-01-15T08:26:01.935Z,81.32
2023-01-15T08:27:04.348Z,81.53
2023-01-15T08:28:05.907Z,81.29
2023-01-15T08:29:07.667Z,82.40
2023-01-15T08:30:13.019Z,82.36
2023-01-15T08:31:14.652Z,81.78
2023-01-15T08:32:16.258Z,80.80
2023-01-15T08:33:17.770Z,82.08
2023-01-15T08:34:19.358Z,82.47
2023-01-15T08:35:21.060Z,82.23
2023-01-15T08:36:22.614Z,81.73
2023-01-15T08:37:25.429Z,81.22
2023-01-15T08:38:27.064Z,81.25
2023-01-15T08:39:28.965Z,81.65
2023-01-15T08:40:30.502Z,80.48
2023-01-15T08:41:32.114Z,80.93
2023-01-15T08:42:33.937Z,78.95
2023-01-15T08:43:35.489Z,78.91
2023-01-15T08:44:37.105Z,79.77
2023-01-15T08:45:38.689Z,79.58
2023-01-15T08:46:40.224Z,79.65
2023-01-15T08:47:41.723Z,78.29
2023-01-15T08:48:44.689Z,78.44
2023-01-15T08:49:48.295Z,79.59
2023-01-15T08:50:50.648Z,78.36
2023-01-15T08:51:53.013Z,78.74
2023-01-15T08:52:54.613Z,77.66
2023-01-15T08:53:56.196Z,77.40
2023-01-15T08:54:57.775Z,78.73
2023-01-15T08:55:59.366Z,77.55
2023-01-15T08:57:01.485Z,76.26
2023-01-15T08:58:02.986Z,75.78
2023-01-15T08:59:08.330Z,77.44
2023-01-15T09:00:10.596Z,77.70
2023-01-15T09:01:15.914Z,77.52
2023-01-15T09:02:18.374Z,78.17
2023-01-15T09:03:20.045Z,76.46
2023-01-15T09:04:22.188Z,76.45
2023-01-15T09:05:23.822Z,76.98
2023-01-15T09:06:25.657Z,75.10
2023-01-15T09:07:27.257Z,75.17
2023-01-15T09:08:29.611Z,75.53
2023-01-15T09:09:31.262Z,74.89
2023-01-15T09:10:33.786Z,72.75
2023-01-15T09:11:36.321Z,72.53
2023-01-15T09:12:37.878Z,71.54
2023-01-15T09:13:39.539Z,71.71
2023-01-15T09:14:56.565Z,71.42
2023-01-15T09:16:05.286Z,69.56
2023-01-15T09:17:07.000Z,72.25
2023-01-15T09:18:10.710Z,70.79
2023-01-15T09:19:12.399Z,71.14
2023-01-15T09:20:14.548Z,70.38
2023-01-15T09:21:16.118Z,69.09
2023-01-15T09:22:17.644Z,69.46
2023-01-15T09:23:19.208Z,69.74
2023-01-15T09:24:20.756Z,68.72
2023-01-15T09:25:25.044Z,69.84
2023-01-15T09:26:31.273Z,69.57
2023-01-15T09:27:38.226Z,68.77
2023-01-15T09:28:41.709Z,69.24
2023-01-15T09:29:44.621Z,68.62
2023-01-15T09:30:46.951Z,68.23
2023-01-15T09:31:49.507Z,66.84
2023-01-15T09:32:51.539Z,65.52
2023-01-15T09:33:53.256Z,68.43
2023-01-15T09:34:54.855Z,66.41
2023-01-15T09:35:56.474Z,67.15
2023-01-15T09:36:57.976Z,67.13
2023-01-15T09:37:59.555Z,67.76
2023-01-15T09:39:02.451Z,66.28
2023-01-15T09:40:06.471Z,66.00
2023-01-15T09:41:34.870Z,65.16
2023-01-15T09:42:46.154Z,65.25
2023-01-15T09:44:00.433Z,63.30
2023-01-15T09:45:07.631Z,62.40
2023-01-15T09:46:32.793Z,63.46
2023-01-15T09:48:09.632Z,61.94
2023-01-15T09:49:38.689Z,61.69
2023-01-15T09:50:52.446Z,60.79
2023-01-15T09:52:19.847Z,61.70
2023-01-15T09:53:47.744Z,63.67
2023-01-15T09:54:54.084Z,65.39
2023-01-15T09:55:58.715Z,65.09
2023-01-15T09:57:02.291Z,65.63
2023-01-15T09:58:07.711Z,63.95
2023-01-15T09:59:34.807Z,61.47
2023-01-15T10:00:46.927Z,60.65
2023-01-15T10:01:50.859Z,60.68
2023-01-15T10:03:07.491Z,60.61
2023-01-15T10:04:31.075Z,61.33
2023-01-15T10:05:38.645Z,62.01
2023-01-15T10:06:56.499Z,59.76
2023-01-15T10:08:24.379Z,60.23
2023-01-15T10:09:35.410Z,59.13
2023-01-15T10:10:59.516Z,59.25
2023-01-15T10:12:35.307Z,58.30
2023-01-15T10:13:44.438Z,58.86
2023-01-15T10:15:27.841Z,60.54
2023-01-15T10:16:33.812Z,62.63
2023-01-15T10:17:48.798Z,61.96
2023-01-15T10:18:51.657Z,59.38
2023-01-15T10:19:55.678Z,60.78
2023-01-15T10:21:07.502Z,62.70
2023-01-15T10:22:24.331Z,62.88
2023-01-15T10:24:07.414Z,62.39
2023-01-15T10:25:21.647Z,61.88
2023-01-15T10:26:58.195Z,59.36
2023-01-15T10:28:18.108Z,57.77
2023-01-15T10:29:38.184Z,58.07
2023-01-15T10:30:52.292Z,58.31
2023-01-15T10:32:01.890Z,57.29
2023-01-15T10:33:30.509Z,57.20
2023-01-15T10:34:50.816Z,60.83
2023-01-15T10:36:03.153Z,60.68
2023-01-15T10:37:13.460Z,60.31
2023-01-15T10:38:35.676Z,59.00
2023-01-15T10:39:56.379Z,59.57
2023-01-15T10:41:11.187Z,59.54
2023-01-15T10:42:32.223Z,59.32
2023-01-15T10:44:03.364Z,60.57
2023-01-15T10:45:24.762Z,60.64
2023-01-15T10:46:39.902Z,62.62
2023-01-15T10:47:45.417Z,62.92
2023-01-15T10:48:55.471Z,61.71
2023-01-15T10:49:59.543Z,61.19
2023-01-15T10:51:04.585Z,60.60
2023-01-15T10:52:23.900Z,59.91
2023-01-15T10:53:25.404Z,60.26
2023-01-15T10:54:37.552Z,60.03
2023-01-15T10:55:44.135Z,60.50
2023-01-15T10:56:58.272Z,58.60
2023-01-15T10:58:14.788Z,58.88
2023-01-15T10:59:27.345Z,58.16
2023-01-15T11:00:28.905Z,57.86
2023-01-15T11:01:31.188Z,57.14
2023-01-15T11:02:39.876Z,57.00
2023-01-15T11:03:44.588Z,55.46
2023-01-15T11:04:46.193Z,56.17
2023-01-15T11:05:47.854Z,56.96
2023-01-15T11:06:49.497Z,58.41
2023-01-15T11:08:26.281Z,58.60
2023-01-15T11:09:22.644Z,58.74
2023-01-15T11:10:24.909Z,58.18
2023-01-15T11:11:59.287Z,56.52
2023-01-15T11:13:36.589Z,56.39
2023-01-15T11:15:00.262Z,58.78
2023-01-15T11:16:20.782Z,59.37
2023-01-15T11:17:50.179Z,59.53
2023-01-15T11:19:10.472Z,58.85
2023-01-15T11:20:29.523Z,58.43
2023-01-15T11:21:31.965Z,57.77
2023-01-15T11:22:38.862Z,57.59
2023-01-15T11:23:40.516Z,58.39
2023-01-15T11:24:54.774Z,58.90
2023-01-15T11:26:00.333Z,60.48
2023-01-15T11:27:02.036Z,60.24
2023-01-15T11:28:06.905Z,58.04
2023-01-15T11:29:19.743Z,61.28
2023-01-15T11:30:37.642Z,58.99
2023-01-15T11:31:41.266Z,59.66
2023-01-15T11:32:42.834Z,61.23
2023-01-15T11:34:02.133Z,61.51
2023-01-15T11:35:18.497Z,59.90
2023-01-15T11:36:23.636Z,61.75
2023-01-15T11:37:25.534Z,60.80
2023-01-15T11:38:47.476Z,60.15
2023-01-15T11:40:07.298Z,59.89
2023-01-15T11:41:45.916Z,59.31
2023-01-15T11:43:06.647Z,59.76
2023-01-15T11:44:29.082Z,61.13
2023-01-15T11:45:49.315Z,63.78
2023-01-15T11:47:13.780Z,60.56
2023-01-15T11:48:37.599Z,60.55
2023-01-15T11:49:57.447Z,61.00
2023-01-15T11:51:08.228Z,61.45
2023-01-15T11:52:17.693Z,62.15
2023-01-15T11:53:27.053Z,61.35
2023-01-15T11:54:30.795Z,60.51
2023-01-15T11:55:32.875Z,60.36
2023-01-15T11:56:36.329Z,60.40
2023-01-15T11:57:38.955Z,64.89
2023-01-15T11:58:43.235Z,61.77
2023-01-15T11:59:49.531Z,60.13
2023-01-15T12:00:55.357Z,59.81
2023-01-15T12:02:04.528Z,58.73
2023-01-15T12:03:18.909Z,62.23
2023-01-15T12:04:32.577Z,60.45
2023-01-15T12:05:37.423Z,61.49
2023-01-15T12:06:41.097Z,61.24
2023-01-15T12:07:43.049Z,60.56
2023-01-15T12:08:51.926Z,59.69
2023-01-15T12:10:44.488Z,59.26
2023-01-15T12:12:11.415Z,59.33
2023-01-15T12:13:37.297Z,59.21
2023-01-15T12:15:07.870Z,58.99
2023-01-15T12:16:34.478Z,59.41
2023-01-15T12:17:54.397Z,59.61
2023-01-15T12:19:29.091Z,59.17
2023-01-15T12:20:40.777Z,59.29
2023-01-15T12:21:51.213Z,59.45
2023-01-15T12:23:20.630Z,59.07
2023-01-15T12:24:49.081Z,60.16
2023-01-15T12:26:04.348Z,58.99
2023-01-15T12:27:17.869Z,56.67
2023-01-15T12:28:27.997Z,57.54
2023-01-15T12:29:39.415Z,57.40
2023-01-15T12:30:46.892Z,58.08
2023-01-15T12:31:55.149Z,57.30
2023-01-15T12:33:11.703Z,57.57
2023-01-15T12:34:23.583Z,58.88
2023-01-15T12:35:34.728Z,59.98
2023-01-15T12:37:59.008Z,60.18
2023-01-15T12:39:05.254Z,58.86
2023-01-15T12:40:06.718Z,59.80
2023-01-15T12:41:14.370Z,59.70
2023-01-15T12:42:41.121Z,58.35
2023-01-15T12:44:08.360Z,57.74
2023-01-15T12:45:15.765Z,60.10
2023-01-15T12:46:29.009Z,59.83
2023-01-15T12:48:02.394Z,58.76
2023-01-15T12:49:15.950Z,58.81
2023-01-15T12:50:38.879Z,58.53
2023-01-15T12:52:03.058Z,57.99
2023-01-15T12:53:26.033Z,58.45
2023-01-15T12:54:39.272Z,60.09
2023-01-15T12:55:49.450Z,58.06
2023-01-15T12:57:02.883Z,57.78
2023-01-15T12:58:12.731Z,57.74
2023-01-15T12:59:32.490Z,57.65
2023-01-15T13:00:43.439Z,57.50
2023-01-15T13:02:20.573Z,58.60
2023-01-15T13:03:30.506Z,59.10
2023-01-15T13:04:52.185Z,58.84
2023-01-15T13:06:00.251Z,59.23
2023-01-15T13:07:11.982Z,58.49
2023-01-15T13:08:30.608Z,57.45
2023-01-15T13:09:52.874Z,59.10
2023-01-15T13:10:54.421Z,57.83
2023-01-15T13:11:55.977Z,57.13
2023-01-15T13:13:11.498Z,57.25
2023-01-15T13:14:17.282Z,59.15
2023-01-15T13:15:21.828Z,58.70
2023-01-15T13:16:45.120Z,58.30
2023-01-15T13:18:14.583Z,58.06
2023-01-15T13:19:34.780Z,57.18
2023-01-15T13:20:39.260Z,58.08
2023-01-15T13:21:43.555Z,57.78
2023-01-15T13:23:17.854Z,57.75
2023-01-15T13:25:02.515Z,58.19
2023-01-15T13:26:22.174Z,58.60
2023-01-15T13:27:42.404Z,57.72
2023-01-15T13:29:24.621Z,57.08
2023-01-15T13:30:47.000Z,56.92
2023-01-15T13:31:58.776Z,59.03
2023-01-15T13:33:23.980Z,58.33
2023-01-15T13:34:37.570Z,58.03
2023-01-15T13:35:48.597Z,57.41
2023-01-15T13:36:52.770Z,56.88
2023-01-15T13:37:58.142Z,56.19
2023-01-15T13:39:03.026Z,56.38
2023-01-15T13:40:38.671Z,57.83
2023-01-15T13:41:58.834Z,57.78
2023-01-15T13:43:02.193Z,57.00
2023-01-15T13:44:04.028Z,58.27
2023-01-15T13:45:27.681Z,57.94
2023-01-15T13:46:29.714Z,58.33
2023-01-15T13:47:35.155Z,56.53
2023-01-15T13:48:45.420Z,56.24
2023-01-15T13:49:52.060Z,57.09
2023-01-15T13:50:58.845Z,57.24
2023-01-15T13:52:04.537Z,57.80
2023-01-15T13:53:15.362Z,56.72
2023-01-15T13:54:20.953Z,56.68
2023-01-15T13:55:34.125Z,57.55
2023-01-15T13:56:39.958Z,57.75
2023-01-15T13:57:43.095Z,57.24
2023-01-15T13:58:53.800Z,56.81
2023-01-15T13:59:55.428Z,57.41
2023-01-15T14:01:20.575Z,57.49
2023-01-15T14:02:28.737Z,58.24
2023-01-15T14:03:33.092Z,57.22
2023-01-15T14:04:38.691Z,57.57
2023-01-15T14:05:40.258Z,56.24
2023-01-15T14:06:50.558Z,57.17
2023-01-15T14:07:52.633Z,57.69
2023-01-15T14:08:55.384Z,58.11
2023-01-15T14:10:23.513Z,57.31
2023-01-15T14:12:00.032Z,57.75
2023-01-15T14:13:30.069Z,57.54
2023-01-15T14:14:50.368Z,58.48
2023-01-15T14:16:15.456Z,58.46
2023-01-15T14:18:00.895Z,59.33
2023-01-15T14:19:16.958Z,58.39
2023-01-15T14:20:36.912Z,58.86
2023-01-15T14:21:56.403Z,58.95
2023-01-15T14:23:05.793Z,59.44
2023-01-15T14:24:16.282Z,59.58
2023-01-15T14:25:35.964Z,60.30
2023-01-15T14:26:49.843Z,59.94
2023-01-15T14:28:22.248Z,59.65
2023-01-15T14:29:30.250Z,59.72
2023-01-15T14:31:12.291Z,60.59
2023-01-15T14:32:49.321Z,60.55
2023-01-15T14:34:03.073Z,60.19